sensor_id;sensor_type;location;lat;lon;timestamp;pressure;altitude;pressure_sealevel;temperature;humidity
16100;BME280;8154;50.830;12.082;2023-12-04T00:00:02;99848.78;;;19.02;36.83
16100;BME280;8154;50.830;12.082;2023-12-04T00:02:29;99863.50;;;19.04;36.59
16100;BME280;8154;50.830;12.082;2023-12-04T00:04:56;99854.59;;;19.05;36.72
16100;BME280;8154;50.830;12.082;2023-12-04T00:07:22;99856.41;;;19.05;36.88
16100;BME280;8154;50.830;12.082;2023-12-04T00:09:48;99852.09;;;19.04;36.58
16100;BME280;8154;50.830;12.082;2023-12-04T00:12:15;99846.28;;;19.00;36.54
16100;BME280;8154;50.830;12.082;2023-12-04T00:14:42;99850.25;;;19.04;36.76
16100;BME280;8154;50.830;12.082;2023-12-04T00:17:09;99846.97;;;19.02;36.79
16100;BME280;8154;50.830;12.082;2023-12-04T00:19:36;99850.41;;;19.03;36.79
16100;BME280;8154;50.830;12.082;2023-12-04T00:22:02;99845.28;;;19.01;36.72
16100;BME280;8154;50.830;12.082;2023-12-04T00:24:28;99844.31;;;19.02;36.57
16100;BME280;8154;50.830;12.082;2023-12-04T00:26:54;99838.84;;;19.04;36.74
16100;BME280;8154;50.830;12.082;2023-12-04T00:29:20;99831.88;;;19.03;36.74
16100;BME280;8154;50.830;12.082;2023-12-04T00:31:46;99833.72;;;19.02;36.87
16100;BME280;8154;50.830;12.082;2023-12-04T00:34:14;99837.03;;;19.04;36.62
16100;BME280;8154;50.830;12.082;2023-12-04T00:36:40;99838.03;;;19.03;36.85
16100;BME280;8154;50.830;12.082;2023-12-04T00:39:06;99824.78;;;19.03;36.79
16100;BME280;8154;50.830;12.082;2023-12-04T00:41:32;99787.75;;;18.78;36.63
16100;BME280;8154;50.830;12.082;2023-12-04T00:44:00;99831.88;;;19.03;36.77
16100;BME280;8154;50.830;12.082;2023-12-04T00:46:26;99822.13;;;19.03;36.81
16100;BME280;8154;50.830;12.082;2023-12-04T00:48:52;99818.63;;;19.03;36.81
16100;BME280;8154;50.830;12.082;2023-12-04T00:51:18;99818.00;;;19.01;36.89
16100;BME280;8154;50.830;12.082;2023-12-04T00:53:44;99817.00;;;19.02;36.77
16100;BME280;8154;50.830;12.082;2023-12-04T00:56:10;99819.63;;;19.02;36.80
16100;BME280;8154;50.830;12.082;2023-12-04T00:58:36;99814.50;;;19.00;36.67
16100;BME280;8154;50.830;12.082;2023-12-04T01:01:03;99805.56;;;19.01;36.87
16100;BME280;8154;50.830;12.082;2023-12-04T01:03:29;99808.34;;;19.00;36.93
16100;BME280;8154;50.830;12.082;2023-12-04T01:05:59;99797.28;;;18.96;36.72
16100;BME280;8154;50.830;12.082;2023-12-04T01:08:25;99797.59;;;19.01;36.77
16100;BME280;8154;50.830;12.082;2023-12-04T01:10:52;99805.56;;;19.01;36.71
16100;BME280;8154;50.830;12.082;2023-12-04T01:13:18;99807.38;;;19.01;36.85
16100;BME280;8154;50.830;12.082;2023-12-04T01:15:45;99803.75;;;19.02;36.64
16100;BME280;8154;50.830;12.082;2023-12-04T01:18:12;99803.91;;;19.00;36.79
16100;BME280;8154;50.830;12.082;2023-12-04T01:20:40;99799.28;;;19.02;36.66
16100;BME280;8154;50.830;12.082;2023-12-04T01:23:07;99793.16;;;19.02;36.76
16100;BME280;8154;50.830;12.082;2023-12-04T01:25:33;99788.69;;;19.02;36.69
16100;BME280;8154;50.830;12.082;2023-12-04T01:28:00;99780.91;;;19.01;36.64
16100;BME280;8154;50.830;12.082;2023-12-04T01:30:26;99788.00;;;19.00;36.79
16100;BME280;8154;50.830;12.082;2023-12-04T01:32:52;99765.81;;;18.93;36.77
16100;BME280;8154;50.830;12.082;2023-12-04T01:35:18;99773.13;;;18.99;36.67
16100;BME280;8154;50.830;12.082;2023-12-04T01:37:45;99715.69;;;18.66;36.82
16100;BME280;8154;50.830;12.082;2023-12-04T01:40:11;99758.19;;;18.90;36.65
16100;BME280;8154;50.830;12.082;2023-12-04T01:42:38;99765.00;;;19.01;36.59
16100;BME280;8154;50.830;12.082;2023-12-04T01:45:05;99752.56;;;19.01;36.67
16100;BME280;8154;50.830;12.082;2023-12-04T01:47:32;99759.56;;;19.02;36.60
16100;BME280;8154;50.830;12.082;2023-12-04T01:49:58;99755.06;;;19.03;36.60
16100;BME280;8154;50.830;12.082;2023-12-04T01:52:24;99755.22;;;19.01;36.57
16100;BME280;8154;50.830;12.082;2023-12-04T01:54:53;99743.13;;;18.99;36.81
16100;BME280;8154;50.830;12.082;2023-12-04T01:57:19;99750.09;;;19.00;36.80
16100;BME280;8154;50.830;12.082;2023-12-04T01:59:46;99736.00;;;18.91;36.77
16100;BME280;8154;50.830;12.082;2023-12-04T02:02:13;99743.97;;;18.99;36.57
16100;BME280;8154;50.830;12.082;2023-12-04T02:04:39;99748.44;;;18.99;36.73
16100;BME280;8154;50.830;12.082;2023-12-04T02:07:06;99751.94;;;18.99;36.68
16100;BME280;8154;50.830;12.082;2023-12-04T02:09:35;99746.63;;;18.99;36.78
16100;BME280;8154;50.830;12.082;2023-12-04T02:12:03;99737.00;;;18.98;36.77
16100;BME280;8154;50.830;12.082;2023-12-04T02:14:29;99732.03;;;18.95;36.80
16100;BME280;8154;50.830;12.082;2023-12-04T02:16:57;99744.13;;;18.98;36.67
16100;BME280;8154;50.830;12.082;2023-12-04T02:19:25;99739.00;;;18.96;36.75
16100;BME280;8154;50.830;12.082;2023-12-04T02:21:51;99736.19;;;18.98;36.52
16100;BME280;8154;50.830;12.082;2023-12-04T02:24:17;99733.53;;;18.98;36.83
16100;BME280;8154;50.830;12.082;2023-12-04T02:26:52;99732.72;;;18.97;36.61
16100;BME280;8154;50.830;12.082;2023-12-04T02:29:24;99728.25;;;18.98;36.59
16100;BME280;8154;50.830;12.082;2023-12-04T02:31:55;99692.59;;;18.84;36.67
16100;BME280;8154;50.830;12.082;2023-12-04T02:34:23;99698.25;;;18.89;36.54
16100;BME280;8154;50.830;12.082;2023-12-04T02:36:51;99707.06;;;18.98;36.55
16100;BME280;8154;50.830;12.082;2023-12-04T02:39:18;99707.06;;;18.98;36.54
16100;BME280;8154;50.830;12.082;2023-12-04T02:41:45;99706.38;;;18.96;36.72
16100;BME280;8154;50.830;12.082;2023-12-04T02:44:11;99697.59;;;18.95;36.75
16100;BME280;8154;50.830;12.082;2023-12-04T02:46:38;99698.59;;;18.94;36.75
16100;BME280;8154;50.830;12.082;2023-12-04T02:49:04;99698.28;;;18.97;36.62
16100;BME280;8154;50.830;12.082;2023-12-04T02:51:31;99706.22;;;18.97;36.58
16100;BME280;8154;50.830;12.082;2023-12-04T02:53:57;99693.81;;;18.98;36.75
16100;BME280;8154;50.830;12.082;2023-12-04T02:56:23;99693.13;;;18.96;36.91
16100;BME280;8154;50.830;12.082;2023-12-04T02:58:50;99688.69;;;18.96;36.63
16100;BME280;8154;50.830;12.082;2023-12-04T03:01:16;99693.13;;;18.96;36.76
16100;BME280;8154;50.830;12.082;2023-12-04T03:03:42;99687.16;;;18.94;36.60
16100;BME280;8154;50.830;12.082;2023-12-04T03:06:08;99695.09;;;18.94;36.61
16100;BME280;8154;50.830;12.082;2023-12-04T03:08:35;99683.72;;;18.93;36.75
16100;BME280;8154;50.830;12.082;2023-12-04T03:11:02;99678.56;;;18.92;36.73
16100;BME280;8154;50.830;12.082;2023-12-04T03:13:30;99683.72;;;18.93;36.73
16100;BME280;8154;50.830;12.082;2023-12-04T03:15:56;99663.50;;;18.92;36.68
16100;BME280;8154;50.830;12.082;2023-12-04T03:18:22;99668.47;;;18.95;36.66
16100;BME280;8154;50.830;12.082;2023-12-04T03:20:50;99655.38;;;18.94;36.75
16100;BME280;8154;50.830;12.082;2023-12-04T03:23:16;99659.03;;;18.93;36.77
16100;BME280;8154;50.830;12.082;2023-12-04T03:25:42;99661.69;;;18.93;36.68
16100;BME280;8154;50.830;12.082;2023-12-04T03:28:09;99658.19;;;18.92;36.79
16100;BME280;8154;50.830;12.082;2023-12-04T03:30:35;99659.88;;;18.93;36.72
16100;BME280;8154;50.830;12.082;2023-12-04T03:33:01;99670.94;;;18.97;36.45
16100;BME280;8154;50.830;12.082;2023-12-04T03:35:27;99665.81;;;18.95;36.47
16100;BME280;8154;50.830;12.082;2023-12-04T03:37:54;99666.13;;;18.92;36.64
16100;BME280;8154;50.830;12.082;2023-12-04T03:40:20;99666.81;;;18.94;36.82
16100;BME280;8154;50.830;12.082;2023-12-04T03:42:47;99667.13;;;18.91;36.57
16100;BME280;8154;50.830;12.082;2023-12-04T03:45:14;99664.34;;;18.93;36.74
16100;BME280;8154;50.830;12.082;2023-12-04T03:47:40;99629.66;;;18.70;36.41
16100;BME280;8154;50.830;12.082;2023-12-04T03:50:07;99655.88;;;18.89;36.62
16100;BME280;8154;50.830;12.082;2023-12-04T03:52:33;99653.06;;;18.91;36.59
16100;BME280;8154;50.830;12.082;2023-12-04T03:54:59;99642.63;;;18.89;36.68
16100;BME280;8154;50.830;12.082;2023-12-04T03:57:25;99646.78;;;18.92;36.59
16100;BME280;8154;50.830;12.082;2023-12-04T03:59:51;99644.31;;;18.90;36.63
16100;BME280;8154;50.830;12.082;2023-12-04T04:02:17;99637.00;;;18.92;36.69
16100;BME280;8154;50.830;12.082;2023-12-04T04:04:43;99630.06;;;18.91;36.57
16100;BME280;8154;50.830;12.082;2023-12-04T04:07:09;99620.47;;;18.90;36.85
16100;BME280;8154;50.830;12.082;2023-12-04T04:09:35;99621.28;;;18.91;36.67
16100;BME280;8154;50.830;12.082;2023-12-04T04:12:02;99598.91;;;18.77;36.66
16100;BME280;8154;50.830;12.082;2023-12-04T04:14:28;99606.38;;;18.90;36.60
16100;BME280;8154;50.830;12.082;2023-12-04T04:16:54;99610.69;;;18.91;36.45
16100;BME280;8154;50.830;12.082;2023-12-04T04:19:20;99615.00;;;18.92;36.55
16100;BME280;8154;50.830;12.082;2023-12-04T04:21:47;99601.94;;;18.90;36.75
16100;BME280;8154;50.830;12.082;2023-12-04T04:24:13;99549.03;;;18.57;36.58
16100;BME280;8154;50.830;12.082;2023-12-04T04:26:39;99598.44;;;18.90;36.68
16100;BME280;8154;50.830;12.082;2023-12-04T04:29:05;99589.16;;;18.86;36.66
16100;BME280;8154;50.830;12.082;2023-12-04T04:31:31;99585.53;;;18.87;36.58
16100;BME280;8154;50.830;12.082;2023-12-04T04:33:57;99593.31;;;18.88;36.59
16100;BME280;8154;50.830;12.082;2023-12-04T04:36:23;99597.59;;;18.89;36.59
16100;BME280;8154;50.830;12.082;2023-12-04T04:38:50;99589.00;;;18.87;36.65
16100;BME280;8154;50.830;12.082;2023-12-04T04:41:17;99594.13;;;18.89;36.57
16100;BME280;8154;50.830;12.082;2023-12-04T04:43:45;99591.63;;;18.87;36.76
16100;BME280;8154;50.830;12.082;2023-12-04T04:46:11;99587.19;;;18.88;36.79
16100;BME280;8154;50.830;12.082;2023-12-04T04:48:37;99588.19;;;18.87;36.67
16100;BME280;8154;50.830;12.082;2023-12-04T04:51:03;99585.53;;;18.87;36.60
16100;BME280;8154;50.830;12.082;2023-12-04T04:53:29;99579.56;;;18.85;36.64
16100;BME280;8154;50.830;12.082;2023-12-04T04:55:56;99578.41;;;18.87;36.59
16100;BME280;8154;50.830;12.082;2023-12-04T04:58:22;99575.75;;;18.87;36.50
16100;BME280;8154;50.830;12.082;2023-12-04T05:00:49;99566.16;;;18.86;36.55
16100;BME280;8154;50.830;12.082;2023-12-04T05:03:15;99567.16;;;18.85;36.48
16100;BME280;8154;50.830;12.082;2023-12-04T05:05:42;99567.97;;;18.86;36.65
16100;BME280;8154;50.830;12.082;2023-12-04T05:08:08;99524.41;;;18.56;36.46
16100;BME280;8154;50.830;12.082;2023-12-04T05:10:38;99540.47;;;18.71;36.60
16100;BME280;8154;50.830;12.082;2023-12-04T05:13:04;99561.88;;;18.85;36.52
16100;BME280;8154;50.830;12.082;2023-12-04T05:15:31;99548.63;;;18.85;36.43
16100;BME280;8154;50.830;12.082;2023-12-04T05:17:57;99554.72;;;18.86;36.32
16100;BME280;8154;50.830;12.082;2023-12-04T05:20:23;99547.78;;;18.85;36.49
16100;BME280;8154;50.830;12.082;2023-12-04T05:22:50;99539.00;;;18.84;36.47
16100;BME280;8154;50.830;12.082;2023-12-04T05:25:18;99540.00;;;18.83;36.47
16100;BME280;8154;50.830;12.082;2023-12-04T05:27:44;99542.50;;;18.85;36.40
16100;BME280;8154;50.830;12.082;2023-12-04T05:30:12;99532.72;;;18.85;36.46
16100;BME280;8154;50.830;12.082;2023-12-04T05:32:38;99533.72;;;18.84;36.40
16100;BME280;8154;50.830;12.082;2023-12-04T05:35:05;99521.47;;;18.83;36.37
16100;BME280;8154;50.830;12.082;2023-12-04T05:37:31;99526.75;;;18.83;36.18
16100;BME280;8154;50.830;12.082;2023-12-04T05:39:58;99525.13;;;18.82;36.30
16100;BME280;8154;50.830;12.082;2023-12-04T05:42:24;99529.56;;;18.82;36.40
16100;BME280;8154;50.830;12.082;2023-12-04T05:44:51;99515.84;;;18.78;36.44
16100;BME280;8154;50.830;12.082;2023-12-04T05:47:21;99527.94;;;18.81;36.45
16100;BME280;8154;50.830;12.082;2023-12-04T05:49:48;99513.84;;;18.72;36.22
16100;BME280;8154;50.830;12.082;2023-12-04T05:52:14;99518.81;;;18.75;36.40
16100;BME280;8154;50.830;12.082;2023-12-04T05:54:40;99524.63;;;18.79;36.20
16100;BME280;8154;50.830;12.082;2023-12-04T05:57:06;99514.84;;;18.79;36.22
16100;BME280;8154;50.830;12.082;2023-12-04T05:59:33;99496.81;;;18.75;36.30
16100;BME280;8154;50.830;12.082;2023-12-04T06:01:59;99506.91;;;18.79;36.44
16100;BME280;8154;50.830;12.082;2023-12-04T06:04:25;99493.50;;;18.81;36.17
16100;BME280;8154;50.830;12.082;2023-12-04T06:06:52;99498.97;;;18.79;36.18
16100;BME280;8154;50.830;12.082;2023-12-04T06:09:18;99500.63;;;18.80;36.44
16100;BME280;8154;50.830;12.082;2023-12-04T06:11:45;99492.84;;;18.79;36.15
16100;BME280;8154;50.830;12.082;2023-12-04T06:14:12;99495.66;;;18.77;36.29
16100;BME280;8154;50.830;12.082;2023-12-04T06:16:39;99485.91;;;18.78;36.22
16100;BME280;8154;50.830;12.082;2023-12-04T06:19:05;99482.56;;;18.76;36.42
16100;BME280;8154;50.830;12.082;2023-12-04T06:21:31;99430.41;;;18.44;36.20
16100;BME280;8154;50.830;12.082;2023-12-04T06:23:59;99476.78;;;18.80;36.32
16100;BME280;8154;50.830;12.082;2023-12-04T06:26:25;99475.47;;;18.76;36.26
16100;BME280;8154;50.830;12.082;2023-12-04T06:28:51;99483.41;;;18.76;36.24
16100;BME280;8154;50.830;12.082;2023-12-04T06:31:19;99485.06;;;18.77;36.32
16100;BME280;8154;50.830;12.082;2023-12-04T06:33:50;99472.81;;;18.76;36.11
16100;BME280;8154;50.830;12.082;2023-12-04T06:36:17;99475.47;;;18.76;36.36
16100;BME280;8154;50.830;12.082;2023-12-04T06:38:47;99462.72;;;18.72;36.40
16100;BME280;8154;50.830;12.082;2023-12-04T06:41:14;99472.00;;;18.76;36.00
16100;BME280;8154;50.830;12.082;2023-12-04T06:43:44;99421.50;;;18.45;36.23
16100;BME280;8154;50.830;12.082;2023-12-04T06:46:12;99469.50;;;18.74;36.16
16100;BME280;8154;50.830;12.082;2023-12-04T06:48:42;99463.38;;;18.74;36.08
16100;BME280;8154;50.830;12.082;2023-12-04T06:51:09;99465.84;;;18.75;36.18
16100;BME280;8154;50.830;12.082;2023-12-04T06:53:35;99459.75;;;18.75;36.13
16100;BME280;8154;50.830;12.082;2023-12-04T06:56:05;99459.75;;;18.75;36.05
16100;BME280;8154;50.830;12.082;2023-12-04T06:58:31;99465.84;;;18.75;36.19
16100;BME280;8154;50.830;12.082;2023-12-04T07:01:01;99457.09;;;18.75;36.10
16100;BME280;8154;50.830;12.082;2023-12-04T07:03:27;99455.25;;;18.75;36.05
16100;BME280;8154;50.830;12.082;2023-12-04T07:05:53;99453.63;;;18.74;36.17
16100;BME280;8154;50.830;12.082;2023-12-04T07:08:20;99458.91;;;18.74;36.21
16100;BME280;8154;50.830;12.082;2023-12-04T07:10:47;99443.88;;;18.75;36.23
16100;BME280;8154;50.830;12.082;2023-12-04T07:13:13;99457.09;;;18.75;36.18
16100;BME280;8154;50.830;12.082;2023-12-04T07:15:40;99454.47;;;18.75;36.17
16100;BME280;8154;50.830;12.082;2023-12-04T07:18:06;99446.84;;;18.72;36.34
16100;BME280;8154;50.830;12.082;2023-12-04T07:20:33;99450.31;;;18.72;36.22
16100;BME280;8154;50.830;12.082;2023-12-04T07:22:59;99452.78;;;18.74;36.14
16100;BME280;8154;50.830;12.082;2023-12-04T07:25:25;99458.25;;;18.72;36.15
16100;BME280;8154;50.830;12.082;2023-12-04T07:27:51;99460.72;;;18.74;36.15
16100;BME280;8154;50.830;12.082;2023-12-04T07:30:18;99452.44;;;18.69;36.31
16100;BME280;8154;50.830;12.082;2023-12-04T07:32:44;99454.78;;;18.72;36.24
16100;BME280;8154;50.830;12.082;2023-12-04T07:35:11;99461.72;;;18.73;36.27
16100;BME280;8154;50.830;12.082;2023-12-04T07:37:37;99451.31;;;18.71;36.15
16100;BME280;8154;50.830;12.082;2023-12-04T07:40:04;99447.66;;;18.72;36.22
16100;BME280;8154;50.830;12.082;2023-12-04T07:42:31;99439.22;;;18.69;36.27
16100;BME280;8154;50.830;12.082;2023-12-04T07:44:57;99449.34;;;18.73;36.12
16100;BME280;8154;50.830;12.082;2023-12-04T07:47:25;99447.66;;;18.72;36.13
16100;BME280;8154;50.830;12.082;2023-12-04T07:49:51;99446.00;;;18.71;36.28
16100;BME280;8154;50.830;12.082;2023-12-04T07:52:17;99403.47;;;18.49;36.37
16100;BME280;8154;50.830;12.082;2023-12-04T07:54:44;99448.31;;;18.74;36.16
16100;BME280;8154;50.830;12.082;2023-12-04T07:57:11;99454.13;;;18.70;35.91
16100;BME280;8154;50.830;12.082;2023-12-04T07:59:37;99464.38;;;18.73;36.32
16100;BME280;8154;50.830;12.082;2023-12-04T08:02:04;99462.56;;;18.73;36.31
16100;BME280;8154;50.830;12.082;2023-12-04T08:04:31;99454.63;;;18.73;36.25
16100;BME280;8154;50.830;12.082;2023-12-04T08:06:57;99454.78;;;18.72;36.39
16100;BME280;8154;50.830;12.082;2023-12-04T08:09:23;99455.59;;;18.72;36.46
16100;BME280;8154;50.830;12.082;2023-12-04T08:11:49;99432.94;;;18.70;36.28
16100;BME280;8154;50.830;12.082;2023-12-04T08:14:16;99436.41;;;18.70;36.23
16100;BME280;8154;50.830;12.082;2023-12-04T08:16:42;99436.41;;;18.70;36.50
16100;BME280;8154;50.830;12.082;2023-12-04T08:19:08;99427.47;;;18.71;36.49
16100;BME280;8154;50.830;12.082;2023-12-04T08:21:35;99423.16;;;18.70;36.36
16100;BME280;8154;50.830;12.082;2023-12-04T08:24:01;99414.41;;;18.70;36.32
16100;BME280;8154;50.830;12.082;2023-12-04T08:26:28;99415.09;;;18.72;36.47
16100;BME280;8154;50.830;12.082;2023-12-04T08:28:54;99416.06;;;18.71;36.46
16100;BME280;8154;50.830;12.082;2023-12-04T08:31:23;99414.25;;;18.71;36.21
16100;BME280;8154;50.830;12.082;2023-12-04T08:33:50;99404.63;;;18.70;36.46
16100;BME280;8154;50.830;12.082;2023-12-04T08:36:16;99411.59;;;18.71;36.57
16100;BME280;8154;50.830;12.082;2023-12-04T08:38:43;99404.63;;;18.70;36.41
16100;BME280;8154;50.830;12.082;2023-12-04T08:41:10;99407.13;;;18.72;36.42
16100;BME280;8154;50.830;12.082;2023-12-04T08:43:37;99401.66;;;18.65;36.60
16100;BME280;8154;50.830;12.082;2023-12-04T08:46:03;99404.63;;;18.70;36.32
16100;BME280;8154;50.830;12.082;2023-12-04T08:48:29;99412.56;;;18.70;36.32
16100;BME280;8154;50.830;12.082;2023-12-04T08:50:55;99399.34;;;18.70;36.54
16100;BME280;8154;50.830;12.082;2023-12-04T08:53:22;99402.97;;;18.69;36.64
16100;BME280;8154;50.830;12.082;2023-12-04T08:55:49;99401.50;;;18.67;36.27
16100;BME280;8154;50.830;12.082;2023-12-04T08:58:17;99406.13;;;18.73;36.59
16100;BME280;8154;50.830;12.082;2023-12-04T09:00:43;99407.94;;;18.72;36.58
16100;BME280;8154;50.830;12.082;2023-12-04T09:03:10;99405.13;;;18.74;36.61
16100;BME280;8154;50.830;12.082;2023-12-04T09:05:36;99414.06;;;18.73;36.42
16100;BME280;8154;50.830;12.082;2023-12-04T09:08:03;99418.53;;;18.72;36.48
16100;BME280;8154;50.830;12.082;2023-12-04T09:10:30;99413.06;;;18.74;36.53
16100;BME280;8154;50.830;12.082;2023-12-04T09:12:56;99416.72;;;18.73;36.56
16100;BME280;8154;50.830;12.082;2023-12-04T09:15:23;99422.69;;;18.75;36.49
16100;BME280;8154;50.830;12.082;2023-12-04T09:17:49;99427.16;;;18.74;36.45
16100;BME280;8154;50.830;12.082;2023-12-04T09:20:16;99427.16;;;18.74;36.51
16100;BME280;8154;50.830;12.082;2023-12-04T09:22:42;99422.69;;;18.75;36.55
16100;BME280;8154;50.830;12.082;2023-12-04T09:25:09;99423.66;;;18.74;36.62
16100;BME280;8154;50.830;12.082;2023-12-04T09:27:38;99366.09;;;18.44;36.47
16100;BME280;8154;50.830;12.082;2023-12-04T09:30:05;99416.56;;;18.74;36.61
16100;BME280;8154;50.830;12.082;2023-12-04T09:32:32;99412.25;;;18.73;36.67
16100;BME280;8154;50.830;12.082;2023-12-04T09:34:58;99405.97;;;18.74;36.56
16100;BME280;8154;50.830;12.082;2023-12-04T09:37:40;99397.03;;;18.75;36.63
16100;BME280;8154;50.830;12.082;2023-12-04T09:40:07;99389.59;;;18.71;36.54
16100;BME280;8154;50.830;12.082;2023-12-04T09:42:34;99396.22;;;18.75;36.69
16100;BME280;8154;50.830;12.082;2023-12-04T09:45:00;99389.59;;;18.71;36.70
16100;BME280;8154;50.830;12.082;2023-12-04T09:47:29;99383.31;;;18.72;36.57
16100;BME280;8154;50.830;12.082;2023-12-04T09:49:56;99376.19;;;18.72;36.53
16100;BME280;8154;50.830;12.082;2023-12-04T09:52:23;99382.47;;;18.71;36.65
16100;BME280;8154;50.830;12.082;2023-12-04T09:54:50;99382.47;;;18.71;36.47
16100;BME280;8154;50.830;12.082;2023-12-04T09:57:17;99378.66;;;18.74;36.61
16100;BME280;8154;50.830;12.082;2023-12-04T09:59:44;99372.56;;;18.73;36.60
16100;BME280;8154;50.830;12.082;2023-12-04T10:02:11;99374.19;;;18.74;36.42
16100;BME280;8154;50.830;12.082;2023-12-04T10:04:39;99363.59;;;18.74;36.77
16100;BME280;8154;50.830;12.082;2023-12-04T10:07:06;99356.66;;;18.73;36.69
16100;BME280;8154;50.830;12.082;2023-12-04T10:09:32;99357.66;;;18.72;36.72
16100;BME280;8154;50.830;12.082;2023-12-04T10:12:00;99350.38;;;18.74;36.61
16100;BME280;8154;50.830;12.082;2023-12-04T10:14:28;99352.19;;;18.74;36.50
16100;BME280;8154;50.830;12.082;2023-12-04T10:16:57;99349.38;;;18.75;36.65
16100;BME280;8154;50.830;12.082;2023-12-04T10:19:29;99342.44;;;18.74;36.62
16100;BME280;8154;50.830;12.082;2023-12-04T10:21:57;99336.13;;;18.75;36.59
16100;BME280;8154;50.830;12.082;2023-12-04T10:24:38;99328.69;;;18.71;36.76
16100;BME280;8154;50.830;12.082;2023-12-04T10:27:06;99311.66;;;18.73;36.49
16100;BME280;8154;50.830;12.082;2023-12-04T10:29:43;99306.38;;;18.73;36.67
16100;BME280;8154;50.830;12.082;2023-12-04T10:32:09;99301.88;;;18.74;36.58
16100;BME280;8154;50.830;12.082;2023-12-04T10:34:36;99290.50;;;18.73;36.50
16100;BME280;8154;50.830;12.082;2023-12-04T10:37:04;99291.47;;;18.72;36.69
16100;BME280;8154;50.830;12.082;2023-12-04T10:39:31;99281.38;;;18.76;36.77
16100;BME280;8154;50.830;12.082;2023-12-04T10:42:23;99277.09;;;18.75;36.70
16100;BME280;8154;50.830;12.082;2023-12-04T10:44:51;99266.66;;;18.73;36.68
16100;BME280;8154;50.830;12.082;2023-12-04T10:47:19;99260.19;;;18.76;36.56
16100;BME280;8154;50.830;12.082;2023-12-04T10:49:51;99253.09;;;18.68;36.72
16100;BME280;8154;50.830;12.082;2023-12-04T10:52:18;99268.97;;;18.76;36.51
16100;BME280;8154;50.830;12.082;2023-12-04T10:54:47;99229.63;;;18.57;36.68
16100;BME280;8154;50.830;12.082;2023-12-04T10:57:31;99249.28;;;18.63;36.50
16100;BME280;8154;50.830;12.082;2023-12-04T11:00:03;99261.03;;;18.76;36.64
16100;BME280;8154;50.830;12.082;2023-12-04T11:02:34;99266.31;;;18.76;36.78
16100;BME280;8154;50.830;12.082;2023-12-04T11:05:07;99257.38;;;18.77;36.52
16100;BME280;8154;50.830;12.082;2023-12-04T11:07:44;99260.84;;;18.78;36.63
16100;BME280;8154;50.830;12.082;2023-12-04T11:10:14;99258.22;;;18.78;36.50
16100;BME280;8154;50.830;12.082;2023-12-04T11:12:44;99257.38;;;18.77;36.56
16100;BME280;8154;50.830;12.082;2023-12-04T11:15:14;99256.38;;;18.78;36.71
16100;BME280;8154;50.830;12.082;2023-12-04T11:17:48;99253.09;;;18.76;36.59
16100;BME280;8154;50.830;12.082;2023-12-04T11:20:21;99246.63;;;18.79;36.68
16100;BME280;8154;50.830;12.082;2023-12-04T11:22:53;99233.38;;;18.79;36.51
16100;BME280;8154;50.830;12.082;2023-12-04T11:25:28;99241.16;;;18.80;36.51
16100;BME280;8154;50.830;12.082;2023-12-04T11:28:02;99224.31;;;18.73;36.69
16100;BME280;8154;50.830;12.082;2023-12-04T11:30:29;99243.81;;;18.80;36.63
16100;BME280;8154;50.830;12.082;2023-12-04T11:32:56;99240.66;;;18.77;36.51
16100;BME280;8154;50.830;12.082;2023-12-04T11:35:25;99236.19;;;18.77;36.66
16100;BME280;8154;50.830;12.082;2023-12-04T11:41:32;99237.03;;;18.78;36.59
16100;BME280;8154;50.830;12.082;2023-12-04T11:44:00;99242.31;;;18.78;36.61
16100;BME280;8154;50.830;12.082;2023-12-04T11:46:28;99228.25;;;18.77;36.48
16100;BME280;8154;50.830;12.082;2023-12-04T11:49:40;99227.59;;;18.75;36.49
16100;BME280;8154;50.830;12.082;2023-12-04T11:54:10;99211.38;;;18.78;36.54
16100;BME280;8154;50.830;12.082;2023-12-04T11:56:39;99212.38;;;18.77;36.57
16100;BME280;8154;50.830;12.082;2023-12-04T11:59:07;99203.59;;;18.77;36.63
16100;BME280;8154;50.830;12.082;2023-12-04T12:01:35;99192.84;;;18.78;36.55
16100;BME280;8154;50.830;12.082;2023-12-04T12:04:09;99186.72;;;18.78;36.65
16100;BME280;8154;50.830;12.082;2023-12-04T12:06:36;99180.59;;;18.77;36.52
16100;BME280;8154;50.830;12.082;2023-12-04T12:09:07;99175.31;;;18.77;36.54
16100;BME280;8154;50.830;12.082;2023-12-04T12:11:37;99152.34;;;18.70;36.51
16100;BME280;8154;50.830;12.082;2023-12-04T12:14:05;99155.78;;;18.78;36.64
16100;BME280;8154;50.830;12.082;2023-12-04T12:16:31;99155.59;;;18.80;36.36
16100;BME280;8154;50.830;12.082;2023-12-04T12:18:58;99141.09;;;18.68;36.45
16100;BME280;8154;50.830;12.082;2023-12-04T12:21:25;99148.16;;;18.75;36.64
16100;BME280;8154;50.830;12.082;2023-12-04T12:23:51;99143.53;;;18.77;36.58
16100;BME280;8154;50.830;12.082;2023-12-04T12:26:18;99134.75;;;18.77;36.52
16100;BME280;8154;50.830;12.082;2023-12-04T12:28:45;99132.13;;;18.77;36.51
16100;BME280;8154;50.830;12.082;2023-12-04T12:31:11;99127.81;;;18.76;36.57
16100;BME280;8154;50.830;12.082;2023-12-04T12:34:34;99141.91;;;18.76;36.41
16100;BME280;8154;50.830;12.082;2023-12-04T12:37:03;99140.22;;;18.75;36.36
16100;BME280;8154;50.830;12.082;2023-12-04T12:39:32;99140.22;;;18.75;36.55
16100;BME280;8154;50.830;12.082;2023-12-04T12:42:00;99137.41;;;18.77;36.31
16100;BME280;8154;50.830;12.082;2023-12-04T12:44:27;99139.25;;;18.76;36.54
16100;BME280;8154;50.830;12.082;2023-12-04T12:46:54;99124.88;;;18.71;36.49
16100;BME280;8154;50.830;12.082;2023-12-04T12:49:23;99132.28;;;18.75;36.58
16100;BME280;8154;50.830;12.082;2023-12-04T12:51:50;99124.34;;;18.75;36.63
16100;BME280;8154;50.830;12.082;2023-12-04T12:54:25;99109.81;;;18.71;36.65
16100;BME280;8154;50.830;12.082;2023-12-04T12:56:51;99106.16;;;18.72;36.49
16100;BME280;8154;50.830;12.082;2023-12-04T12:59:17;99097.44;;;18.64;36.60
16100;BME280;8154;50.830;12.082;2023-12-04T13:01:56;99097.56;;;18.70;36.50
16100;BME280;8154;50.830;12.082;2023-12-04T13:04:37;99115.78;;;18.73;36.62
16100;BME280;8154;50.830;12.082;2023-12-04T13:07:06;99110.13;;;18.76;36.50